Hospital, New York
Current Conditions -  °F | °C
As of 12:53 AM on Wednesday 22 Oct 2014 (Local Time) from KBGM Reporting Station
Overcast Overcast  
Wind Chill: 47°   Ceiling: 600
Heat Index: 49°   Visibility: 8mi
Dew Point: 47°   Wind: 6mph
Humidity: 93%   Direction: 30°NNE
Pressure: 29.97"   Gusts: NA
Location:  42.133°N, 75.8266°W
Report Text: KBGM 220453Z AUTO 03005KT 8SM BKN006 OVC009 09/08 A2997 RMK AO2 RAB18E31 SLP153 P0000 T00940083 401220078
Loading
Personal Weather Stations






























Interactive Weather Map
Tropical Storm Tracking
New forecast layout! Learn more

10-Day Weather Forecast

Advertisements
Track Severe Weather on mobile